Forest Home, Alabama
Current Conditions -  °F | °C
As of 5:56 AM on Tuesday 27 Jan 2015 (Local Time) from KPRN Reporting Station
Clear Clear  
Wind Chill:   Ceiling: Unl
Heat Index:   Visibility: 10mi
Dew Point: -1°   Wind: 0mph
Humidity: 85%   Direction: NA
Pressure: 29.96"   Gusts: NA
Location:  31.86°N, 86.84°W
Report Text: KPRN 271156Z AUTO 00000KT 10SM CLR 02/M01 A2996 RMK AO2 SLP147 T00171006 10039 21011 53003 FZRANO
Loading
Personal Weather Stations






























Interactive Weather Map New forecast layout! Learn more

10-Day Weather Forecast

Advertisements
Track Severe Weather on mobile